createdAt,value
2022-11-26T00:01:18.916Z,25.70
2022-11-26T00:03:52.551Z,25.80
2022-11-26T00:06:32.448Z,25.70
2022-11-26T00:09:08.582Z,25.70
2022-11-26T00:11:40.072Z,25.70
2022-11-26T00:14:16.707Z,25.70
2022-11-26T00:16:48.700Z,25.70
2022-11-26T00:19:20.246Z,25.70
2022-11-26T00:21:51.798Z,25.70
2022-11-26T00:24:30.213Z,25.70
2022-11-26T00:27:03.366Z,25.70
2022-11-26T00:29:34.644Z,25.70
2022-11-26T00:32:06.361Z,25.70
2022-11-26T00:34:37.709Z,25.70
2022-11-26T00:37:12.481Z,25.70
2022-11-26T00:39:46.306Z,25.70
2022-11-26T00:42:17.987Z,25.70
2022-11-26T00:44:49.126Z,25.70
2022-11-26T00:47:20.711Z,25.70
2022-11-26T00:49:51.825Z,25.70
2022-11-26T00:52:30.737Z,25.70
2022-11-26T00:55:07.602Z,25.70
2022-11-26T00:57:39.808Z,25.70
2022-11-26T01:00:18.436Z,25.70
2022-11-26T01:02:50.075Z,25.70
2022-11-26T01:05:22.317Z,25.70
2022-11-26T01:07:55.265Z,25.70
2022-11-26T01:10:32.317Z,25.70
2022-11-26T01:13:03.861Z,25.70
2022-11-26T01:15:34.993Z,25.70
2022-11-26T01:18:14.966Z,25.70
2022-11-26T01:20:46.877Z,25.70
2022-11-26T01:23:20.741Z,25.70
2022-11-26T01:25:54.542Z,25.70
2022-11-26T01:28:26.172Z,25.70
2022-11-26T01:30:57.434Z,25.70
2022-11-26T01:33:29.136Z,25.70
2022-11-26T01:36:00.245Z,25.70
2022-11-26T01:38:31.746Z,25.80
2022-11-26T01:41:17.463Z,25.70
2022-11-26T01:43:52.382Z,25.70
2022-11-26T01:46:26.548Z,25.70
2022-11-26T01:48:58.142Z,25.70
2022-11-26T01:51:31.387Z,25.70
2022-11-26T01:54:05.008Z,25.70
2022-11-26T01:56:42.958Z,25.70
2022-11-26T01:59:21.559Z,25.80
2022-11-26T02:01:54.527Z,25.70
2022-11-26T02:04:30.158Z,25.70
2022-11-26T02:07:01.632Z,25.70
2022-11-26T02:09:33.713Z,25.70
2022-11-26T02:12:07.839Z,25.70
2022-11-26T02:14:43.628Z,25.70
2022-11-26T02:17:22.012Z,25.80
2022-11-26T02:20:28.836Z,25.70
2022-11-26T02:23:30.703Z,25.80
2022-11-26T02:26:13.737Z,25.80
2022-11-26T02:29:04.863Z,25.70
2022-11-26T02:31:44.904Z,25.70
2022-11-26T02:34:21.392Z,25.80
2022-11-26T02:36:57.270Z,25.70
2022-11-26T02:39:30.282Z,25.70
2022-11-26T02:42:05.071Z,25.80
2022-11-26T02:44:44.995Z,25.80
2022-11-26T02:47:22.002Z,25.80
2022-11-26T02:49:54.522Z,25.80
2022-11-26T02:52:27.952Z,25.80
2022-11-26T02:55:00.235Z,25.80
2022-11-26T02:57:35.535Z,25.80
2022-11-26T03:00:08.244Z,25.80
2022-11-26T03:02:48.073Z,25.80
2022-11-26T03:05:21.231Z,25.80
2022-11-26T03:07:55.809Z,25.80
2022-11-26T03:10:30.213Z,25.80
2022-11-26T03:13:01.877Z,25.80
2022-11-26T03:15:33.053Z,25.80
2022-11-26T03:18:07.202Z,25.70
2022-11-26T03:20:38.515Z,25.80
2022-11-26T03:23:10.470Z,25.70
2022-11-26T03:25:41.728Z,25.80
2022-11-26T03:28:12.930Z,25.80
2022-11-26T03:30:44.062Z,25.80
2022-11-26T03:33:17.845Z,25.80
2022-11-26T03:35:51.060Z,25.80
2022-11-26T03:38:22.552Z,25.80
2022-11-26T03:40:59.509Z,25.70
2022-11-26T03:43:31.064Z,25.80
2022-11-26T03:46:02.291Z,25.80
2022-11-26T03:48:36.172Z,25.80
2022-11-26T03:51:07.282Z,25.80
2022-11-26T03:53:38.733Z,25.80
2022-11-26T03:56:24.793Z,25.80
2022-11-26T03:58:56.586Z,25.80
2022-11-26T04:01:28.142Z,25.80
2022-11-26T04:04:02.269Z,25.80
2022-11-26T04:06:34.010Z,25.80
2022-11-26T04:09:05.579Z,25.70
2022-11-26T04:11:36.820Z,25.80
2022-11-26T04:14:08.527Z,25.70
2022-11-26T04:16:39.847Z,25.80
2022-11-26T04:19:13.610Z,25.80
2022-11-26T04:21:44.684Z,25.80
2022-11-26T04:24:16.160Z,25.70
2022-11-26T04:26:47.434Z,25.80
2022-11-26T04:29:18.680Z,25.80
2022-11-26T04:31:49.842Z,25.70
2022-11-26T04:34:23.909Z,25.80
2022-11-26T04:36:55.104Z,25.80
2022-11-26T04:39:26.609Z,25.80
2022-11-26T04:41:57.762Z,25.70
2022-11-26T04:44:29.821Z,25.70
2022-11-26T04:47:00.676Z,25.80
2022-11-26T04:49:34.814Z,25.80
2022-11-26T04:52:05.968Z,25.80
2022-11-26T04:54:37.724Z,25.80
2022-11-26T04:57:09.087Z,25.70
2022-11-26T04:59:40.603Z,25.80
2022-11-26T05:02:11.781Z,25.80
2022-11-26T05:04:45.639Z,25.70
2022-11-26T05:07:16.696Z,25.70
2022-11-26T05:09:48.649Z,25.70
2022-11-26T05:12:19.565Z,25.70
2022-11-26T05:14:51.016Z,25.70
2022-11-26T05:17:22.224Z,25.70
2022-11-26T05:19:56.234Z,25.70
2022-11-26T05:22:28.164Z,25.80
2022-11-26T05:24:59.660Z,25.70
2022-11-26T05:27:30.935Z,25.70
2022-11-26T05:30:02.537Z,25.70
2022-11-26T05:32:33.835Z,25.70
2022-11-26T05:35:08.726Z,25.70
2022-11-26T05:37:40.537Z,25.70
2022-11-26T05:40:13.019Z,25.70
2022-11-26T05:42:44.207Z,25.70
2022-11-26T05:45:16.713Z,25.70
2022-11-26T05:47:47.882Z,25.70
2022-11-26T05:50:22.114Z,25.70
2022-11-26T05:52:57.244Z,25.70
2022-11-26T05:55:28.811Z,25.80
2022-11-26T05:58:00.024Z,25.70
2022-11-26T06:00:31.860Z,25.80
2022-11-26T06:03:03.067Z,25.70
2022-11-26T06:05:37.006Z,25.70
2022-11-26T06:08:08.266Z,25.70
2022-11-26T06:10:40.433Z,25.70
2022-11-26T06:13:11.609Z,25.70
2022-11-26T06:15:43.219Z,25.70
2022-11-26T06:18:14.436Z,25.70
2022-11-26T06:20:48.662Z,25.70
2022-11-26T06:23:19.928Z,25.80
2022-11-26T06:25:51.457Z,25.70
2022-11-26T06:28:22.620Z,25.70
2022-11-26T06:30:54.640Z,25.70
2022-11-26T06:33:25.559Z,25.70
2022-11-26T06:36:02.044Z,25.80
2022-11-26T06:38:33.231Z,25.70
2022-11-26T06:41:06.700Z,25.70
2022-11-26T06:43:38.028Z,25.70
2022-11-26T06:46:10.066Z,25.70
2022-11-26T06:48:42.204Z,25.70
2022-11-26T06:51:20.664Z,25.70
2022-11-26T06:53:52.164Z,25.70
2022-11-26T06:56:24.081Z,25.70
2022-11-26T06:58:55.962Z,25.70
2022-11-26T07:01:28.949Z,25.80
2022-11-26T07:04:00.202Z,25.70
2022-11-26T07:06:36.036Z,25.70
2022-11-26T07:09:09.780Z,25.70
2022-11-26T07:11:42.973Z,25.70
2022-11-26T07:14:14.125Z,25.70
2022-11-26T07:16:45.653Z,25.70
2022-11-26T07:19:17.598Z,25.70
2022-11-26T07:21:51.821Z,25.70
2022-11-26T07:24:23.245Z,25.70
2022-11-26T07:26:55.249Z,25.70
2022-11-26T07:29:26.523Z,25.70
2022-11-26T07:31:58.191Z,25.70
2022-11-26T07:34:29.441Z,25.80
2022-11-26T07:37:04.441Z,25.70
2022-11-26T07:39:35.692Z,25.70
2022-11-26T07:42:07.140Z,25.70
2022-11-26T07:44:39.076Z,25.70
2022-11-26T07:47:10.734Z,25.70
2022-11-26T07:49:42.098Z,25.80
2022-11-26T07:52:15.936Z,25.70
2022-11-26T07:54:47.180Z,25.70
2022-11-26T07:57:18.566Z,25.80
2022-11-26T07:59:49.938Z,25.70
2022-11-26T08:02:21.914Z,25.70
2022-11-26T08:04:53.391Z,25.70
2022-11-26T08:07:29.376Z,25.70
2022-11-26T08:10:01.150Z,25.70
2022-11-26T08:12:33.463Z,25.70
2022-11-26T08:15:04.840Z,25.60
2022-11-26T08:17:36.155Z,25.40
2022-11-26T08:20:08.354Z,25.30
2022-11-26T08:22:42.411Z,25.30
2022-11-26T08:25:14.184Z,25.20
2022-11-26T08:27:46.529Z,25.20
2022-11-26T08:30:17.957Z,25.10
2022-11-26T08:32:49.515Z,25.10
2022-11-26T08:35:20.737Z,25.10
2022-11-26T08:37:54.908Z,25.00
2022-11-26T08:40:26.638Z,25.00
2022-11-26T08:42:58.278Z,24.90
2022-11-26T08:45:29.974Z,24.90
2022-11-26T08:48:01.454Z,24.80
2022-11-26T08:50:33.159Z,24.80
2022-11-26T08:53:07.348Z,24.70
2022-11-26T08:55:59.302Z,24.70
2022-11-26T08:58:30.412Z,24.70
2022-11-26T09:01:01.797Z,24.70
2022-11-26T09:03:33.250Z,24.70
2022-11-26T09:06:04.765Z,24.70
2022-11-26T09:09:00.689Z,24.70
2022-11-26T09:11:32.693Z,24.70
2022-11-26T09:14:04.556Z,24.60
2022-11-26T09:16:36.514Z,24.70
2022-11-26T09:19:09.389Z,24.80
2022-11-26T09:21:40.773Z,24.80
2022-11-26T09:24:14.630Z,24.90
2022-11-26T09:26:45.924Z,25.00
2022-11-26T09:29:18.037Z,25.00
2022-11-26T09:32:21.447Z,25.00
2022-11-26T09:34:42.254Z,25.00
2022-11-26T09:37:13.415Z,25.00
2022-11-26T09:39:47.510Z,25.00
2022-11-26T09:42:29.947Z,25.00
2022-11-26T09:45:11.663Z,25.00
2022-11-26T09:47:46.235Z,25.00
2022-11-26T09:50:28.864Z,25.00
2022-11-26T09:53:04.749Z,25.00
2022-11-26T09:55:42.401Z,25.00
2022-11-26T09:58:25.281Z,25.00
2022-11-26T10:01:00.769Z,25.00
2022-11-26T10:03:36.402Z,25.00
2022-11-26T10:06:11.358Z,25.00
2022-11-26T10:09:10.629Z,24.90
2022-11-26T10:11:53.027Z,24.80
2022-11-26T10:14:39.967Z,24.70
2022-11-26T10:17:30.934Z,24.60
2022-11-26T10:20:24.303Z,24.60
2022-11-26T10:23:03.439Z,24.30
2022-11-26T10:25:45.436Z,24.50
2022-11-26T10:28:24.930Z,24.50
2022-11-26T10:31:01.341Z,24.70
2022-11-26T10:33:36.653Z,24.70
2022-11-26T10:36:13.001Z,24.80
2022-11-26T10:38:44.616Z,24.80
2022-11-26T10:41:16.466Z,24.80
2022-11-26T10:43:50.513Z,24.80
2022-11-26T10:46:36.563Z,24.80
2022-11-26T10:49:24.267Z,24.80
2022-11-26T10:51:58.638Z,24.80
2022-11-26T10:54:35.289Z,24.90
2022-11-26T10:57:16.462Z,24.90
2022-11-26T10:59:56.269Z,24.90
2022-11-26T11:02:34.626Z,24.90
2022-11-26T11:05:08.939Z,24.90
2022-11-26T11:07:45.274Z,24.90
2022-11-26T11:10:19.701Z,24.90
2022-11-26T11:12:53.279Z,24.90
2022-11-26T11:15:30.885Z,24.80
2022-11-26T11:18:05.393Z,24.80
2022-11-26T11:20:39.057Z,24.90
2022-11-26T11:23:31.084Z,24.90
2022-11-26T11:26:17.640Z,24.80
2022-11-26T11:28:51.771Z,24.80
2022-11-26T11:31:29.043Z,24.80
2022-11-26T11:34:16.820Z,24.80
2022-11-26T11:37:01.921Z,24.80
2022-11-26T11:39:34.830Z,24.80
2022-11-26T11:42:10.580Z,24.80
2022-11-26T11:44:50.123Z,24.80
2022-11-26T11:47:37.496Z,24.70
2022-11-26T11:50:30.136Z,24.70
2022-11-26T11:53:23.403Z,24.70
2022-11-26T11:56:08.818Z,24.70
2022-11-26T11:59:04.061Z,24.70
2022-11-26T12:01:54.350Z,24.70
2022-11-26T12:04:51.499Z,24.70
2022-11-26T12:07:43.814Z,24.70
2022-11-26T12:10:22.625Z,24.70
2022-11-26T12:12:56.839Z,24.70
2022-11-26T12:15:31.495Z,24.70
2022-11-26T12:18:09.748Z,24.70
2022-11-26T12:20:49.081Z,24.70
2022-11-26T12:23:30.818Z,24.70
2022-11-26T12:26:08.803Z,24.70
2022-11-26T12:28:49.728Z,24.70
2022-11-26T12:31:29.624Z,24.70
2022-11-26T12:34:08.949Z,24.70
2022-11-26T12:36:51.233Z,24.70
2022-11-26T12:39:28.485Z,24.70
2022-11-26T12:42:05.598Z,24.70
2022-11-26T12:44:41.314Z,24.70
2022-11-26T12:47:20.443Z,24.70
2022-11-26T12:50:14.771Z,24.70
2022-11-26T12:52:57.771Z,24.70
2022-11-26T12:55:33.516Z,24.70
2022-11-26T12:58:13.413Z,24.70
2022-11-26T13:00:45.020Z,24.70
2022-11-26T13:03:20.185Z,24.70
2022-11-26T13:06:04.934Z,24.60
2022-11-26T13:08:51.616Z,24.60
2022-11-26T13:11:34.823Z,24.70
2022-11-26T13:14:14.016Z,24.60
2022-11-26T13:16:50.563Z,24.70
2022-11-26T13:19:30.221Z,24.60
2022-11-26T13:22:26.332Z,24.60
2022-11-26T13:25:26.022Z,24.60
2022-11-26T13:28:10.436Z,24.60
2022-11-26T13:30:52.822Z,24.60
2022-11-26T13:33:57.546Z,24.70
2022-11-26T13:36:44.206Z,24.70
2022-11-26T13:39:42.050Z,24.70
2022-11-26T13:42:38.015Z,24.60
2022-11-26T13:45:24.635Z,24.60
2022-11-26T13:48:01.546Z,24.60
2022-11-26T13:50:39.052Z,24.50
2022-11-26T13:53:17.097Z,24.50
2022-11-26T13:55:53.838Z,24.60
2022-11-26T13:58:33.320Z,24.60
2022-11-26T14:01:35.738Z,24.60
2022-11-26T14:04:09.678Z,24.50
2022-11-26T14:06:41.374Z,24.50
2022-11-26T14:09:47.896Z,24.60
2022-11-26T14:12:20.101Z,24.60
2022-11-26T14:14:54.954Z,24.60
2022-11-26T14:17:33.922Z,24.60
2022-11-26T14:20:12.967Z,24.60
2022-11-26T14:22:47.662Z,24.60
2022-11-26T14:25:19.472Z,24.60
2022-11-26T14:27:57.466Z,24.60
2022-11-26T14:30:32.681Z,24.60
2022-11-26T14:33:15.438Z,24.60
2022-11-26T14:35:58.739Z,24.50
2022-11-26T14:38:31.838Z,24.60
2022-11-26T14:41:04.507Z,24.60
2022-11-26T14:43:35.775Z,24.50
2022-11-26T14:46:14.216Z,24.50
2022-11-26T14:48:47.453Z,24.50
2022-11-26T14:51:25.995Z,24.60
2022-11-26T14:53:59.219Z,24.50
2022-11-26T14:56:32.902Z,24.60
2022-11-26T14:59:05.545Z,24.60
2022-11-26T15:01:39.857Z,24.60
2022-11-26T15:04:25.047Z,24.50
2022-11-26T15:06:56.945Z,24.50
2022-11-26T15:09:29.241Z,24.60
2022-11-26T15:12:07.648Z,24.50
2022-11-26T15:14:44.137Z,24.50
2022-11-26T15:17:21.314Z,24.50
2022-11-26T15:19:54.706Z,24.50
2022-11-26T15:22:35.638Z,24.60
2022-11-26T15:25:08.088Z,24.50
2022-11-26T15:27:41.899Z,24.50
2022-11-26T15:30:22.960Z,24.50
2022-11-26T15:33:03.752Z,24.50
2022-11-26T15:35:36.448Z,24.50
2022-11-26T15:38:13.875Z,24.50
2022-11-26T15:40:50.332Z,24.50
2022-11-26T15:43:27.540Z,24.50
2022-11-26T15:46:02.696Z,24.50
2022-11-26T15:48:57.732Z,24.40
2022-11-26T15:51:36.172Z,24.50
2022-11-26T15:54:10.869Z,24.50
2022-11-26T15:56:42.347Z,24.50
2022-11-26T15:59:18.702Z,24.50
2022-11-26T16:01:50.586Z,24.50
2022-11-26T16:04:49.376Z,24.40
2022-11-26T16:07:22.430Z,24.50
2022-11-26T16:09:55.642Z,24.50
2022-11-26T16:12:34.521Z,24.50
2022-11-26T16:15:15.890Z,24.50
2022-11-26T16:17:47.712Z,24.50
2022-11-26T16:20:25.417Z,24.50
2022-11-26T16:22:59.229Z,24.50
2022-11-26T16:25:33.275Z,24.50
2022-11-26T16:28:09.963Z,24.50
2022-11-26T16:30:43.805Z,24.50
2022-11-26T16:33:15.119Z,24.50
2022-11-26T16:35:49.745Z,24.50
2022-11-26T16:38:23.005Z,24.50
2022-11-26T16:40:55.316Z,24.40
2022-11-26T16:43:27.483Z,24.40
2022-11-26T16:45:59.238Z,24.40
2022-11-26T16:48:31.173Z,24.40
2022-11-26T16:51:05.684Z,24.40
2022-11-26T16:53:36.874Z,24.40
2022-11-26T16:56:10.116Z,24.40
2022-11-26T16:58:41.437Z,24.40
2022-11-26T17:01:12.822Z,24.40
2022-11-26T17:03:44.047Z,24.40
2022-11-26T17:06:19.139Z,24.30
2022-11-26T17:08:50.880Z,24.40
2022-11-26T17:11:22.489Z,24.30
2022-11-26T17:13:54.349Z,24.20
2022-11-26T17:16:27.025Z,24.30
2022-11-26T17:18:58.325Z,24.30
2022-11-26T17:21:32.441Z,24.40
2022-11-26T17:24:03.735Z,24.20
2022-11-26T17:26:35.330Z,24.20
2022-11-26T17:29:06.577Z,24.30
2022-11-26T17:31:38.224Z,24.40
2022-11-26T17:34:09.321Z,24.40
2022-11-26T17:36:43.440Z,24.30
2022-11-26T17:39:15.199Z,24.30
2022-11-26T17:41:46.723Z,24.30
2022-11-26T17:44:17.971Z,24.10
2022-11-26T17:47:16.272Z,24.30
2022-11-26T17:49:41.377Z,24.30
2022-11-26T17:52:16.050Z,24.20
2022-11-26T17:54:48.496Z,24.20
2022-11-26T17:57:21.016Z,24.20
2022-11-26T17:59:52.303Z,24.30
2022-11-26T18:02:23.792Z,24.20
2022-11-26T18:04:55.112Z,24.20
2022-11-26T18:07:29.455Z,24.10
2022-11-26T18:10:00.720Z,24.00
2022-11-26T18:12:32.400Z,23.90
2022-11-26T18:15:04.368Z,23.90
2022-11-26T18:17:36.627Z,23.90
2022-11-26T18:20:08.166Z,23.80
2022-11-26T18:22:42.339Z,23.90
2022-11-26T18:25:13.610Z,23.80
2022-11-26T18:27:45.132Z,23.70
2022-11-26T18:30:16.716Z,23.80
2022-11-26T18:32:48.433Z,23.80
2022-11-26T18:35:19.690Z,23.80
2022-11-26T18:37:54.035Z,23.80
2022-11-26T18:40:25.531Z,23.80
2022-11-26T18:42:57.109Z,23.80
2022-11-26T18:45:28.349Z,23.90
2022-11-26T18:47:59.886Z,24.00
2022-11-26T18:50:31.188Z,23.90
2022-11-26T18:53:05.385Z,23.90
2022-11-26T18:55:37.203Z,23.80
2022-11-26T18:58:08.727Z,24.00
2022-11-26T19:00:40.228Z,23.90
2022-11-26T19:03:11.439Z,23.90
2022-11-26T19:05:44.690Z,23.80
2022-11-26T19:08:19.124Z,23.90
2022-11-26T19:10:50.916Z,24.00
2022-11-26T19:13:22.601Z,24.00
2022-11-26T19:15:53.791Z,23.90
2022-11-26T19:18:25.233Z,23.90
2022-11-26T19:20:56.557Z,23.80
2022-11-26T19:23:30.404Z,23.80
2022-11-26T19:26:01.736Z,23.90
2022-11-26T19:28:32.907Z,23.90
2022-11-26T19:31:06.740Z,23.90
2022-11-26T19:33:38.456Z,23.90
2022-11-26T19:36:13.288Z,23.90
2022-11-26T19:38:48.884Z,23.90
2022-11-26T19:41:25.244Z,24.00
2022-11-26T19:43:57.599Z,23.90
2022-11-26T19:46:29.073Z,24.00
2022-11-26T19:49:00.310Z,24.00
2022-11-26T19:51:31.592Z,23.90
2022-11-26T19:54:05.489Z,23.90
2022-11-26T19:56:37.543Z,23.80
2022-11-26T19:59:09.135Z,23.80
2022-11-26T20:01:40.363Z,23.90
2022-11-26T20:04:20.888Z,24.00
2022-11-26T20:06:52.282Z,24.00
2022-11-26T20:09:26.256Z,24.10
2022-11-26T20:11:57.414Z,24.00
2022-11-26T20:14:29.347Z,24.10
2022-11-26T20:17:01.253Z,24.10
2022-11-26T20:19:33.612Z,24.00
2022-11-26T20:22:06.199Z,24.00
2022-11-26T20:24:40.338Z,24.10
2022-11-26T20:27:11.516Z,24.10
2022-11-26T20:29:42.950Z,24.00
2022-11-26T20:32:15.878Z,24.10
2022-11-26T20:34:48.116Z,24.10
2022-11-26T20:37:19.385Z,24.10
2022-11-26T20:39:53.550Z,24.10
2022-11-26T20:42:25.090Z,24.00
2022-11-26T20:44:56.436Z,23.90
2022-11-26T20:47:27.758Z,23.70
2022-11-26T20:49:59.112Z,23.70
2022-11-26T20:52:30.196Z,23.80
2022-11-26T20:55:04.737Z,23.80
2022-11-26T20:57:38.146Z,23.90
2022-11-26T21:00:11.323Z,23.80
2022-11-26T21:02:42.746Z,23.90
2022-11-26T21:05:15.671Z,23.70
2022-11-26T21:07:46.966Z,23.80
2022-11-26T21:10:25.327Z,23.80
2022-11-26T21:12:56.418Z,23.60
2022-11-26T21:15:28.069Z,23.70
2022-11-26T21:17:59.331Z,23.70
2022-11-26T21:20:36.065Z,23.60
2022-11-26T21:23:07.624Z,23.60
2022-11-26T21:25:43.798Z,23.60
2022-11-26T21:28:19.721Z,23.40
2022-11-26T21:30:51.373Z,23.40
2022-11-26T21:33:22.620Z,23.30
2022-11-26T21:35:54.145Z,23.40
2022-11-26T21:38:26.896Z,23.50
2022-11-26T21:41:01.122Z,23.40
2022-11-26T21:43:32.415Z,23.30
2022-11-26T21:46:05.779Z,23.50
2022-11-26T21:48:38.484Z,23.60
2022-11-26T21:51:11.047Z,23.70
2022-11-26T21:53:42.472Z,23.70
2022-11-26T21:56:17.603Z,23.50
2022-11-26T21:58:49.755Z,23.50
2022-11-26T22:01:22.676Z,23.60
2022-11-26T22:03:57.045Z,23.50
2022-11-26T22:06:29.031Z,23.40
2022-11-26T22:09:00.312Z,23.60
2022-11-26T22:11:37.075Z,23.60
2022-11-26T22:14:09.513Z,23.50
2022-11-26T22:16:41.236Z,23.50
2022-11-26T22:19:12.596Z,23.30
2022-11-26T22:21:45.436Z,23.40
2022-11-26T22:24:20.391Z,23.30
2022-11-26T22:26:54.775Z,23.30
2022-11-26T22:29:26.127Z,23.40
2022-11-26T22:31:57.642Z,23.30
2022-11-26T22:34:29.394Z,23.30
2022-11-26T22:37:00.889Z,23.30
2022-11-26T22:39:32.127Z,23.40
2022-11-26T22:42:06.256Z,23.40
2022-11-26T22:44:37.582Z,23.30
2022-11-26T22:47:09.189Z,23.30
2022-11-26T22:49:40.666Z,23.30
2022-11-26T22:52:12.377Z,23.40
2022-11-26T22:54:43.645Z,23.40
2022-11-26T22:57:22.326Z,23.40
2022-11-26T22:59:56.482Z,23.20
2022-11-26T23:02:29.422Z,23.20
2022-11-26T23:05:02.148Z,23.20
2022-11-26T23:07:34.327Z,23.20
2022-11-26T23:10:05.874Z,23.20
2022-11-26T23:12:39.972Z,23.20
2022-11-26T23:15:11.983Z,23.10
2022-11-26T23:17:43.516Z,23.00
2022-11-26T23:20:16.019Z,23.10
2022-11-26T23:22:47.528Z,23.10
2022-11-26T23:25:18.916Z,23.10
2022-11-26T23:27:53.017Z,23.20
2022-11-26T23:30:24.361Z,23.10
2022-11-26T23:32:55.785Z,23.10
2022-11-26T23:35:27.081Z,23.10
2022-11-26T23:37:58.714Z,23.10
2022-11-26T23:40:29.990Z,23.10
2022-11-26T23:43:08.463Z,23.20
2022-11-26T23:45:40.087Z,23.20
2022-11-26T23:48:11.577Z,23.30
2022-11-26T23:50:43.504Z,23.30
2022-11-26T23:53:14.987Z,23.40
2022-11-26T23:55:46.191Z,23.30
2022-11-26T23:58:20.594Z,23.20
